首页
METAR-TAF:

METAR-TAF

机场 :

阿塔蒂尔克国际机场

伊斯坦布尔 阿塔土克, 土耳其

纬度: 40-58N, 经度: 028-49E, 海拔: 48米

当前天气观测

该预报发布于15分钟前的23:50 UTC
风速7节,风向多变
温度 16°C
湿度 88%
气压 1019 hPa
能見度: 6000
散云层高于3000英尺

METAR: LTBA 212350Z VRB07KT 6000 SCT030 16/14 Q1019 NOSIG

时间: 03:05 (00:05 UTC)

预报

该预报发布于1小时和25分钟前的22:40 UTC
预报有效从22日的 00点(UTC)到 23日的 06点(UTC)
风速9节,风向北转东北
能見度: 6000
散云层高于3500英尺
几率 30% :
短暂存在
从 22日的 03点(UTC)到 22日的 07点(UTC)
能見度: 3200
少量云层高于1600英尺
多云层高于3000英尺
轻雾
短暂存在
从 22日的 08点(UTC)到 22日的 12点(UTC)
少量云层高于1700英尺, 积雨云.
多云层高于3000英尺
小阵雨

TAF: LTBA 212240Z 2200/2306 03009KT 6000 SCT035 PROB30 TEMPO 2203/2207 3200 BR FEW016 BKN030 TEMPO 2208/2212 -SHRA FEW017CB BKN030

超过4000个机场的气象观测和天气预报(METAR&TAF报告)。

可查询的气象台以黄色和红色小点在地图上表示。

将鼠标移到小点上方,可查看气象台名称。

然后点击查看天气观测和预报。

如需切换地图:点击带黑十字的绿色按钮放大地图;点击带横线的绿色按钮缩小地图;或者点击绿色箭头查看邻近地区的地图。


METAR-TAF: